Pikeville, TN

3:07 AM CDT on August 26, 2016 (GMT -0500)
DAYTON MOUNTAIN | | Change Station

Elev 1250 ft 35.57 °N, 85.16 °W | Updated 1 second ago

Clear
Clear
71.9 °F
Feels Like 71.9 °F
N
0.0
Wind Variable Wind from SSE
Gusts 0.0 mph

Today
High -- | Low -- °F
--% Chance of Precip.
Yesterday
High -- | Low -- °F
Precip. -- in
Pressure 30.12 in
Visibility 4.0 miles
Clouds Clear
Dew Point 69 °F
Humidity 90%
Rainfall 0.00 in
Snow Depth Not available.
6:08 AM 7:15 PM
Last Quarter, 37% visible
METAR KCSV 260753Z AUTO 00000KT 4SM BR CLR 21/20 A3019 RMK AO2 SLP198 T02060200
Pressure 30.12 in
Visibility 4.0 miles
Clouds Clear
Dew Point 69 °F
Humidity 90%
Rainfall 0.00 in
Snow Depth Not available.
6:08 AM 7:15 PM
Last Quarter, 37% visible
METAR KCSV 260753Z AUTO 00000KT 4SM BR CLR 21/20 A3019 RMK AO2 SLP198 T02060200

10-Day Weather Forecast

Almanac

Astronomy

Aug. 26, 2016 Rise Set
Actual Time
Civil Twilight
Nautical Twilight
Astronomical Twilight
Moon
Length of Visible Light
Length of Day
Tomorrow will be .
, % of the Moon is Illuminated

Today's Extremes

State Highs State Lows

Community

WunderPhotos

Upload Photos

1,935,062 photos uploaded!

WunderBlog® & News

Nearby

Air Quality

  Air Quality AQ Index Pollutant
Not available.

Snow Depth

Station Depth Elevation

Earthquake Activity

City Distance Mag. Time & Date
Minimum magnitude displayed is 2.5.

Coastal Water Temperatures

Place Temperature

Stations

Nearby Weather Stations

Station Location Temp. Windchill Dew Point Humidity Wind Precip. Elev Updated Type
                   

Watches & Warnings

There are currently no watches in effect.